sensor_id;sensor_type;location;lat;lon;timestamp;temperature;humidity
57857;DHT22;43683;48.650;9.290;2022-11-15T00:01:44;5.40;93.50
57857;DHT22;43683;48.650;9.290;2022-11-15T00:04:09;5.40;93.50
57857;DHT22;43683;48.650;9.290;2022-11-15T00:06:35;5.40;93.50
57857;DHT22;43683;48.650;9.290;2022-11-15T00:09:01;5.50;93.50
57857;DHT22;43683;48.650;9.290;2022-11-15T00:11:27;5.50;93.50
57857;DHT22;43683;48.650;9.290;2022-11-15T00:13:57;5.50;93.60
57857;DHT22;43683;48.650;9.290;2022-11-15T00:16:23;5.50;93.60
57857;DHT22;43683;48.650;9.290;2022-11-15T00:18:49;5.50;93.60
57857;DHT22;43683;48.650;9.290;2022-11-15T00:21:16;5.40;93.80
57857;DHT22;43683;48.650;9.290;2022-11-15T00:23:41;5.30;93.90
57857;DHT22;43683;48.650;9.290;2022-11-15T00:26:11;5.20;94.00
57857;DHT22;43683;48.650;9.290;2022-11-15T00:28:38;5.30;94.10
57857;DHT22;43683;48.650;9.290;2022-11-15T00:31:05;5.30;94.10
57857;DHT22;43683;48.650;9.290;2022-11-15T00:33:33;5.30;94.00
57857;DHT22;43683;48.650;9.290;2022-11-15T00:36:03;5.40;94.00
57857;DHT22;43683;48.650;9.290;2022-11-15T00:38:38;5.40;94.00
57857;DHT22;43683;48.650;9.290;2022-11-15T00:41:05;5.40;94.00
57857;DHT22;43683;48.650;9.290;2022-11-15T00:43:32;5.30;94.00
57857;DHT22;43683;48.650;9.290;2022-11-15T00:45:58;5.30;94.10
57857;DHT22;43683;48.650;9.290;2022-11-15T00:48:23;5.20;94.20
57857;DHT22;43683;48.650;9.290;2022-11-15T00:50:49;5.10;94.30
57857;DHT22;43683;48.650;9.290;2022-11-15T00:53:15;4.90;94.30
57857;DHT22;43683;48.650;9.290;2022-11-15T00:55:41;4.80;94.50
57857;DHT22;43683;48.650;9.290;2022-11-15T00:58:06;4.70;94.60
57857;DHT22;43683;48.650;9.290;2022-11-15T01:00:32;4.60;94.70
57857;DHT22;43683;48.650;9.290;2022-11-15T01:05:24;4.40;94.80
57857;DHT22;43683;48.650;9.290;2022-11-15T01:07:54;4.40;94.90
57857;DHT22;43683;48.650;9.290;2022-11-15T01:10:20;4.30;94.90
57857;DHT22;43683;48.650;9.290;2022-11-15T01:12:46;4.20;94.90
57857;DHT22;43683;48.650;9.290;2022-11-15T01:15:11;4.20;95.00
57857;DHT22;43683;48.650;9.290;2022-11-15T01:17:37;4.10;95.00
57857;DHT22;43683;48.650;9.290;2022-11-15T01:20:03;4.10;95.00
57857;DHT22;43683;48.650;9.290;2022-11-15T01:22:29;4.00;95.00
57857;DHT22;43683;48.650;9.290;2022-11-15T01:24:54;3.90;95.00
57857;DHT22;43683;48.650;9.290;2022-11-15T01:27:20;3.90;95.10
57857;DHT22;43683;48.650;9.290;2022-11-15T01:29:45;3.80;95.20
57857;DHT22;43683;48.650;9.290;2022-11-15T01:32:11;3.80;95.20
57857;DHT22;43683;48.650;9.290;2022-11-15T01:34:36;3.70;95.20
57857;DHT22;43683;48.650;9.290;2022-11-15T01:37:02;3.70;95.20
57857;DHT22;43683;48.650;9.290;2022-11-15T01:39:27;3.70;95.20
57857;DHT22;43683;48.650;9.290;2022-11-15T01:41:53;3.60;95.20
57857;DHT22;43683;48.650;9.290;2022-11-15T01:46:58;3.50;95.30
57857;DHT22;43683;48.650;9.290;2022-11-15T01:49:24;3.40;95.60
57857;DHT22;43683;48.650;9.290;2022-11-15T01:51:51;3.30;95.30
57857;DHT22;43683;48.650;9.290;2022-11-15T01:54:19;3.20;95.30
57857;DHT22;43683;48.650;9.290;2022-11-15T01:56:51;3.10;95.30
57857;DHT22;43683;48.650;9.290;2022-11-15T01:59:18;3.10;95.40
57857;DHT22;43683;48.650;9.290;2022-11-15T02:01:45;3.00;95.40
57857;DHT22;43683;48.650;9.290;2022-11-15T02:04:14;3.00;95.40
57857;DHT22;43683;48.650;9.290;2022-11-15T02:06:41;2.90;95.40
57857;DHT22;43683;48.650;9.290;2022-11-15T02:09:07;2.90;95.40
57857;DHT22;43683;48.650;9.290;2022-11-15T02:11:33;2.90;95.70
57857;DHT22;43683;48.650;9.290;2022-11-15T02:14:00;2.90;95.40
57857;DHT22;43683;48.650;9.290;2022-11-15T02:30:23;3.00;94.90
57857;DHT22;43683;48.650;9.290;2022-11-15T02:38:38;2.90;95.10
57857;DHT22;43683;48.650;9.290;2022-11-15T02:41:28;2.80;95.20
57857;DHT22;43683;48.650;9.290;2022-11-15T02:44:17;2.80;95.30
57857;DHT22;43683;48.650;9.290;2022-11-15T02:46:57;2.80;95.40
57857;DHT22;43683;48.650;9.290;2022-11-15T02:49:43;2.80;95.30
57857;DHT22;43683;48.650;9.290;2022-11-15T02:52:17;2.80;95.30
57857;DHT22;43683;48.650;9.290;2022-11-15T02:54:52;3.00;95.30
57857;DHT22;43683;48.650;9.290;2022-11-15T02:57:20;3.10;95.10
57857;DHT22;43683;48.650;9.290;2022-11-15T03:00:18;3.20;95.00
57857;DHT22;43683;48.650;9.290;2022-11-15T03:05:41;3.50;94.70
57857;DHT22;43683;48.650;9.290;2022-11-15T03:08:17;3.50;94.60
57857;DHT22;43683;48.650;9.290;2022-11-15T03:16:08;3.60;94.60
57857;DHT22;43683;48.650;9.290;2022-11-15T03:18:45;3.60;94.50
57857;DHT22;43683;48.650;9.290;2022-11-15T03:21:14;3.60;94.50
57857;DHT22;43683;48.650;9.290;2022-11-15T03:23:41;3.60;94.60
57857;DHT22;43683;48.650;9.290;2022-11-15T03:26:09;3.50;94.60
57857;DHT22;43683;48.650;9.290;2022-11-15T03:28:44;3.40;94.70
57857;DHT22;43683;48.650;9.290;2022-11-15T03:31:13;3.30;94.90
57857;DHT22;43683;48.650;9.290;2022-11-15T03:33:59;3.30;95.00
57857;DHT22;43683;48.650;9.290;2022-11-15T03:36:30;3.30;95.00
57857;DHT22;43683;48.650;9.290;2022-11-15T03:39:01;3.30;95.00
57857;DHT22;43683;48.650;9.290;2022-11-15T03:44:39;3.40;95.10
57857;DHT22;43683;48.650;9.290;2022-11-15T03:47:11;3.50;95.00
57857;DHT22;43683;48.650;9.290;2022-11-15T03:49:42;3.60;94.80
57857;DHT22;43683;48.650;9.290;2022-11-15T03:52:10;3.70;94.70
57857;DHT22;43683;48.650;9.290;2022-11-15T03:54:36;3.80;94.60
57857;DHT22;43683;48.650;9.290;2022-11-15T03:57:02;3.80;94.60
57857;DHT22;43683;48.650;9.290;2022-11-15T03:59:27;3.80;94.60
57857;DHT22;43683;48.650;9.290;2022-11-15T04:01:53;3.80;94.60
57857;DHT22;43683;48.650;9.290;2022-11-15T04:04:19;3.80;94.60
57857;DHT22;43683;48.650;9.290;2022-11-15T04:06:44;3.80;94.60
57857;DHT22;43683;48.650;9.290;2022-11-15T04:09:10;3.80;94.70
57857;DHT22;43683;48.650;9.290;2022-11-15T04:11:35;3.80;94.70
57857;DHT22;43683;48.650;9.290;2022-11-15T04:14:01;3.70;94.80
57857;DHT22;43683;48.650;9.290;2022-11-15T04:16:27;3.70;94.80
57857;DHT22;43683;48.650;9.290;2022-11-15T04:18:52;3.60;94.90
57857;DHT22;43683;48.650;9.290;2022-11-15T04:21:36;3.50;95.10
57857;DHT22;43683;48.650;9.290;2022-11-15T04:24:20;3.30;95.20
57857;DHT22;43683;48.650;9.290;2022-11-15T04:26:46;3.20;95.30
57857;DHT22;43683;48.650;9.290;2022-11-15T04:29:11;3.10;95.40
57857;DHT22;43683;48.650;9.290;2022-11-15T04:31:56;3.10;95.50
57857;DHT22;43683;48.650;9.290;2022-11-15T04:34:21;3.00;95.40
57857;DHT22;43683;48.650;9.290;2022-11-15T04:36:47;3.00;95.50
57857;DHT22;43683;48.650;9.290;2022-11-15T04:39:31;3.00;95.60
57857;DHT22;43683;48.650;9.290;2022-11-15T04:41:56;3.00;95.40
57857;DHT22;43683;48.650;9.290;2022-11-15T04:44:22;3.00;95.40
57857;DHT22;43683;48.650;9.290;2022-11-15T04:46:47;3.00;95.40
57857;DHT22;43683;48.650;9.290;2022-11-15T04:49:13;2.90;95.40
57857;DHT22;43683;48.650;9.290;2022-11-15T04:51:38;2.90;95.50
57857;DHT22;43683;48.650;9.290;2022-11-15T04:54:04;2.80;95.50
57857;DHT22;43683;48.650;9.290;2022-11-15T04:56:29;2.80;95.60
57857;DHT22;43683;48.650;9.290;2022-11-15T04:58:55;2.80;95.60
57857;DHT22;43683;48.650;9.290;2022-11-15T05:01:20;2.80;95.50
57857;DHT22;43683;48.650;9.290;2022-11-15T05:03:46;2.80;95.50
57857;DHT22;43683;48.650;9.290;2022-11-15T05:06:30;2.80;95.50
57857;DHT22;43683;48.650;9.290;2022-11-15T05:08:56;2.90;95.40
57857;DHT22;43683;48.650;9.290;2022-11-15T05:11:22;2.90;95.30
57857;DHT22;43683;48.650;9.290;2022-11-15T05:13:48;2.80;95.30
57857;DHT22;43683;48.650;9.290;2022-11-15T05:16:14;2.80;95.40
57857;DHT22;43683;48.650;9.290;2022-11-15T05:18:39;2.70;95.50
57857;DHT22;43683;48.650;9.290;2022-11-15T05:21:08;2.80;95.50
57857;DHT22;43683;48.650;9.290;2022-11-15T05:23:34;2.90;95.40
57857;DHT22;43683;48.650;9.290;2022-11-15T05:26:03;2.90;95.40
57857;DHT22;43683;48.650;9.290;2022-11-15T05:28:29;3.00;95.30
57857;DHT22;43683;48.650;9.290;2022-11-15T05:31:01;3.10;95.30
57857;DHT22;43683;48.650;9.290;2022-11-15T05:33:26;3.20;95.20
57857;DHT22;43683;48.650;9.290;2022-11-15T05:35:59;3.20;95.10
57857;DHT22;43683;48.650;9.290;2022-11-15T05:38:25;3.30;95.10
57857;DHT22;43683;48.650;9.290;2022-11-15T05:40:51;3.40;95.00
57857;DHT22;43683;48.650;9.290;2022-11-15T05:43:17;3.40;95.00
57857;DHT22;43683;48.650;9.290;2022-11-15T05:45:43;3.40;95.00
57857;DHT22;43683;48.650;9.290;2022-11-15T05:48:09;3.50;95.00
57857;DHT22;43683;48.650;9.290;2022-11-15T05:50:36;3.50;95.00
57857;DHT22;43683;48.650;9.290;2022-11-15T05:53:04;3.60;95.00
57857;DHT22;43683;48.650;9.290;2022-11-15T05:55:31;3.60;95.00
57857;DHT22;43683;48.650;9.290;2022-11-15T05:57:57;3.70;94.90
57857;DHT22;43683;48.650;9.290;2022-11-15T06:00:22;3.70;95.00
57857;DHT22;43683;48.650;9.290;2022-11-15T06:02:48;3.70;95.30
57857;DHT22;43683;48.650;9.290;2022-11-15T06:05:14;3.60;95.00
57857;DHT22;43683;48.650;9.290;2022-11-15T06:07:39;3.60;95.00
57857;DHT22;43683;48.650;9.290;2022-11-15T06:10:05;3.50;95.20
57857;DHT22;43683;48.650;9.290;2022-11-15T06:12:31;3.40;95.30
57857;DHT22;43683;48.650;9.290;2022-11-15T06:14:56;3.30;95.40
57857;DHT22;43683;48.650;9.290;2022-11-15T06:17:22;3.20;95.50
57857;DHT22;43683;48.650;9.290;2022-11-15T06:19:47;3.10;95.80
57857;DHT22;43683;48.650;9.290;2022-11-15T06:22:13;3.00;95.60
57857;DHT22;43683;48.650;9.290;2022-11-15T06:24:38;2.90;95.60
57857;DHT22;43683;48.650;9.290;2022-11-15T06:27:04;2.80;95.70
57857;DHT22;43683;48.650;9.290;2022-11-15T06:29:29;2.80;95.70
57857;DHT22;43683;48.650;9.290;2022-11-15T06:31:55;2.70;95.80
57857;DHT22;43683;48.650;9.290;2022-11-15T06:34:20;2.80;95.80
57857;DHT22;43683;48.650;9.290;2022-11-15T06:36:46;2.70;96.10
57857;DHT22;43683;48.650;9.290;2022-11-15T06:39:12;2.70;95.80
57857;DHT22;43683;48.650;9.290;2022-11-15T06:41:37;2.80;95.80
57857;DHT22;43683;48.650;9.290;2022-11-15T06:44:03;2.80;95.70
57857;DHT22;43683;48.650;9.290;2022-11-15T06:46:28;2.70;95.70
57857;DHT22;43683;48.650;9.290;2022-11-15T06:48:54;2.80;95.80
57857;DHT22;43683;48.650;9.290;2022-11-15T06:51:20;2.80;95.80
57857;DHT22;43683;48.650;9.290;2022-11-15T06:53:45;2.90;95.80
57857;DHT22;43683;48.650;9.290;2022-11-15T06:56:11;3.00;95.80
57857;DHT22;43683;48.650;9.290;2022-11-15T06:58:37;3.10;95.70
57857;DHT22;43683;48.650;9.290;2022-11-15T07:01:08;3.20;95.60
57857;DHT22;43683;48.650;9.290;2022-11-15T07:03:35;3.30;95.60
57857;DHT22;43683;48.650;9.290;2022-11-15T07:06:01;3.40;95.50
57857;DHT22;43683;48.650;9.290;2022-11-15T07:08:28;3.50;95.40
57857;DHT22;43683;48.650;9.290;2022-11-15T07:10:58;3.70;95.30
57857;DHT22;43683;48.650;9.290;2022-11-15T07:13:26;3.80;95.30
57857;DHT22;43683;48.650;9.290;2022-11-15T07:15:51;3.80;95.30
57857;DHT22;43683;48.650;9.290;2022-11-15T07:18:17;4.00;95.30
57857;DHT22;43683;48.650;9.290;2022-11-15T07:20:43;4.20;95.40
57857;DHT22;43683;48.650;9.290;2022-11-15T07:23:08;4.40;95.40
57857;DHT22;43683;48.650;9.290;2022-11-15T07:25:34;4.60;95.30
57857;DHT22;43683;48.650;9.290;2022-11-15T07:28:00;4.70;95.40
57857;DHT22;43683;48.650;9.290;2022-11-15T07:30:26;4.90;95.60
57857;DHT22;43683;48.650;9.290;2022-11-15T07:32:56;5.10;95.80
57857;DHT22;43683;48.650;9.290;2022-11-15T07:35:22;5.40;96.00
57857;DHT22;43683;48.650;9.290;2022-11-15T07:37:59;5.50;96.00
57857;DHT22;43683;48.650;9.290;2022-11-15T07:40:30;5.60;96.00
57857;DHT22;43683;48.650;9.290;2022-11-15T07:43:04;5.60;96.00
57857;DHT22;43683;48.650;9.290;2022-11-15T07:45:29;5.80;96.20
57857;DHT22;43683;48.650;9.290;2022-11-15T07:47:55;6.10;96.40
57857;DHT22;43683;48.650;9.290;2022-11-15T07:50:22;6.50;96.60
57857;DHT22;43683;48.650;9.290;2022-11-15T07:52:53;6.90;96.60
57857;DHT22;43683;48.650;9.290;2022-11-15T07:55:19;7.50;96.60
57857;DHT22;43683;48.650;9.290;2022-11-15T07:57:45;8.00;96.70
57857;DHT22;43683;48.650;9.290;2022-11-15T08:00:11;8.30;96.70
57857;DHT22;43683;48.650;9.290;2022-11-15T08:02:36;8.50;96.80
57857;DHT22;43683;48.650;9.290;2022-11-15T08:05:02;8.80;96.70
57857;DHT22;43683;48.650;9.290;2022-11-15T08:07:31;9.10;96.60
57857;DHT22;43683;48.650;9.290;2022-11-15T08:09:57;9.40;96.30
57857;DHT22;43683;48.650;9.290;2022-11-15T08:12:23;9.80;96.00
57857;DHT22;43683;48.650;9.290;2022-11-15T08:14:49;9.90;95.60
57857;DHT22;43683;48.650;9.290;2022-11-15T08:17:14;9.90;95.40
57857;DHT22;43683;48.650;9.290;2022-11-15T08:19:40;10.00;95.40
57857;DHT22;43683;48.650;9.290;2022-11-15T08:22:06;10.00;95.20
57857;DHT22;43683;48.650;9.290;2022-11-15T08:24:32;10.00;95.00
57857;DHT22;43683;48.650;9.290;2022-11-15T08:26:57;9.90;94.90
57857;DHT22;43683;48.650;9.290;2022-11-15T08:29:23;9.90;94.70
57857;DHT22;43683;48.650;9.290;2022-11-15T08:31:48;9.90;94.50
57857;DHT22;43683;48.650;9.290;2022-11-15T08:34:14;9.80;94.30
57857;DHT22;43683;48.650;9.290;2022-11-15T08:36:39;9.80;94.20
57857;DHT22;43683;48.650;9.290;2022-11-15T08:39:05;9.90;94.60
57857;DHT22;43683;48.650;9.290;2022-11-15T08:41:36;10.10;94.40
57857;DHT22;43683;48.650;9.290;2022-11-15T08:44:02;10.20;94.40
57857;DHT22;43683;48.650;9.290;2022-11-15T08:46:28;10.20;94.40
57857;DHT22;43683;48.650;9.290;2022-11-15T08:48:53;10.40;94.40
57857;DHT22;43683;48.650;9.290;2022-11-15T08:51:19;10.60;94.40
57857;DHT22;43683;48.650;9.290;2022-11-15T08:53:45;10.90;94.30
57857;DHT22;43683;48.650;9.290;2022-11-15T08:56:12;11.30;94.30
57857;DHT22;43683;48.650;9.290;2022-11-15T08:58:38;11.70;94.20
57857;DHT22;43683;48.650;9.290;2022-11-15T09:01:04;12.00;94.00
57857;DHT22;43683;48.650;9.290;2022-11-15T09:03:30;12.30;93.80
57857;DHT22;43683;48.650;9.290;2022-11-15T09:05:58;12.60;93.50
57857;DHT22;43683;48.650;9.290;2022-11-15T09:08:25;12.70;93.20
57857;DHT22;43683;48.650;9.290;2022-11-15T09:10:51;12.50;93.10
57857;DHT22;43683;48.650;9.290;2022-11-15T09:13:16;12.30;92.90
57857;DHT22;43683;48.650;9.290;2022-11-15T09:15:42;12.10;92.80
57857;DHT22;43683;48.650;9.290;2022-11-15T09:18:08;12.10;92.80
57857;DHT22;43683;48.650;9.290;2022-11-15T09:20:33;12.10;92.70
57857;DHT22;43683;48.650;9.290;2022-11-15T09:23:00;12.30;92.50
57857;DHT22;43683;48.650;9.290;2022-11-15T09:25:27;12.50;91.90
57857;DHT22;43683;48.650;9.290;2022-11-15T09:27:52;12.70;91.40
57857;DHT22;43683;48.650;9.290;2022-11-15T09:30:18;12.90;90.90
57857;DHT22;43683;48.650;9.290;2022-11-15T09:32:43;13.00;90.50
57857;DHT22;43683;48.650;9.290;2022-11-15T09:35:09;13.10;90.20
57857;DHT22;43683;48.650;9.290;2022-11-15T09:37:35;13.00;90.00
57857;DHT22;43683;48.650;9.290;2022-11-15T09:40:02;12.90;90.10
57857;DHT22;43683;48.650;9.290;2022-11-15T09:42:58;12.70;90.10
57857;DHT22;43683;48.650;9.290;2022-11-15T09:45:37;12.60;90.10
57857;DHT22;43683;48.650;9.290;2022-11-15T09:48:52;12.60;90.30
57857;DHT22;43683;48.650;9.290;2022-11-15T09:56:35;13.40;90.30
57857;DHT22;43683;48.650;9.290;2022-11-15T09:59:10;13.30;90.20
57857;DHT22;43683;48.650;9.290;2022-11-15T10:01:59;13.20;90.20
57857;DHT22;43683;48.650;9.290;2022-11-15T10:04:27;13.40;90.20
57857;DHT22;43683;48.650;9.290;2022-11-15T10:09:47;13.90;89.00
57857;DHT22;43683;48.650;9.290;2022-11-15T10:12:13;14.40;87.70
57857;DHT22;43683;48.650;9.290;2022-11-15T10:14:39;14.40;87.10
57857;DHT22;43683;48.650;9.290;2022-11-15T10:17:19;14.50;85.80
57857;DHT22;43683;48.650;9.290;2022-11-15T10:22:51;14.60;83.90
57857;DHT22;43683;48.650;9.290;2022-11-15T10:25:29;14.60;83.80
57857;DHT22;43683;48.650;9.290;2022-11-15T10:28:16;14.50;83.60
57857;DHT22;43683;48.650;9.290;2022-11-15T10:30:45;14.50;83.30
57857;DHT22;43683;48.650;9.290;2022-11-15T10:41:21;14.70;80.70
57857;DHT22;43683;48.650;9.290;2022-11-15T10:46:27;14.70;79.50
57857;DHT22;43683;48.650;9.290;2022-11-15T10:48:53;14.70;79.80
57857;DHT22;43683;48.650;9.290;2022-11-15T10:51:25;14.70;79.70
57857;DHT22;43683;48.650;9.290;2022-11-15T10:53:54;14.80;79.10
57857;DHT22;43683;48.650;9.290;2022-11-15T10:56:24;14.90;78.80
57857;DHT22;43683;48.650;9.290;2022-11-15T10:58:55;14.90;78.50
57857;DHT22;43683;48.650;9.290;2022-11-15T11:01:28;14.80;78.00
57857;DHT22;43683;48.650;9.290;2022-11-15T11:04:07;14.70;78.00
57857;DHT22;43683;48.650;9.290;2022-11-15T11:06:53;14.70;77.90
57857;DHT22;43683;48.650;9.290;2022-11-15T11:09:36;14.70;77.50
57857;DHT22;43683;48.650;9.290;2022-11-15T11:12:05;14.60;77.80
57857;DHT22;43683;48.650;9.290;2022-11-15T11:14:35;14.50;77.80
57857;DHT22;43683;48.650;9.290;2022-11-15T11:22:57;14.20;79.00
57857;DHT22;43683;48.650;9.290;2022-11-15T11:28:14;14.10;79.10
57857;DHT22;43683;48.650;9.290;2022-11-15T11:31:35;14.10;78.70
57857;DHT22;43683;48.650;9.290;2022-11-15T11:45:37;14.10;78.50
57857;DHT22;43683;48.650;9.290;2022-11-15T11:51:36;14.20;78.20
57857;DHT22;43683;48.650;9.290;2022-11-15T11:56:37;14.40;77.90
57857;DHT22;43683;48.650;9.290;2022-11-15T12:01:53;14.60;77.10
57857;DHT22;43683;48.650;9.290;2022-11-15T12:04:24;14.80;77.10
57857;DHT22;43683;48.650;9.290;2022-11-15T12:07:24;14.90;76.60
57857;DHT22;43683;48.650;9.290;2022-11-15T12:09:58;15.00;76.10
57857;DHT22;43683;48.650;9.290;2022-11-15T12:12:47;15.00;76.20
57857;DHT22;43683;48.650;9.290;2022-11-15T12:15:47;15.00;76.50
57857;DHT22;43683;48.650;9.290;2022-11-15T12:18:17;14.90;76.50
57857;DHT22;43683;48.650;9.290;2022-11-15T12:20:56;14.90;77.60
57857;DHT22;43683;48.650;9.290;2022-11-15T12:23:32;14.90;76.30
57857;DHT22;43683;48.650;9.290;2022-11-15T12:26:04;14.90;76.80
57857;DHT22;43683;48.650;9.290;2022-11-15T12:28:49;14.70;76.80
57857;DHT22;43683;48.650;9.290;2022-11-15T12:31:44;14.70;76.70
57857;DHT22;43683;48.650;9.290;2022-11-15T12:36:50;14.60;76.50
57857;DHT22;43683;48.650;9.290;2022-11-15T12:39:17;14.60;76.90
57857;DHT22;43683;48.650;9.290;2022-11-15T12:59:56;14.10;77.50
57857;DHT22;43683;48.650;9.290;2022-11-15T13:02:28;14.10;77.70
57857;DHT22;43683;48.650;9.290;2022-11-15T13:17:53;14.00;78.10
57857;DHT22;43683;48.650;9.290;2022-11-15T13:20:28;14.00;77.90
57857;DHT22;43683;48.650;9.290;2022-11-15T13:31:28;13.80;77.80
57857;DHT22;43683;48.650;9.290;2022-11-15T13:33:59;13.90;77.80
57857;DHT22;43683;48.650;9.290;2022-11-15T13:36:30;13.90;77.70
57857;DHT22;43683;48.650;9.290;2022-11-15T13:39:05;13.90;77.80
57857;DHT22;43683;48.650;9.290;2022-11-15T13:41:33;13.90;77.90
57857;DHT22;43683;48.650;9.290;2022-11-15T13:44:00;13.80;78.00
57857;DHT22;43683;48.650;9.290;2022-11-15T13:46:33;13.80;78.20
57857;DHT22;43683;48.650;9.290;2022-11-15T13:49:07;13.80;78.30
57857;DHT22;43683;48.650;9.290;2022-11-15T13:51:42;13.80;78.30
57857;DHT22;43683;48.650;9.290;2022-11-15T13:56:37;13.70;78.70
57857;DHT22;43683;48.650;9.290;2022-11-15T13:59:10;13.60;78.60
57857;DHT22;43683;48.650;9.290;2022-11-15T14:01:36;13.60;78.60
57857;DHT22;43683;48.650;9.290;2022-11-15T14:04:03;13.50;78.70
57857;DHT22;43683;48.650;9.290;2022-11-15T14:06:30;13.50;78.70
57857;DHT22;43683;48.650;9.290;2022-11-15T14:09:47;13.40;79.50
57857;DHT22;43683;48.650;9.290;2022-11-15T14:11:56;13.30;78.90
57857;DHT22;43683;48.650;9.290;2022-11-15T14:14:24;13.20;79.10
57857;DHT22;43683;48.650;9.290;2022-11-15T14:16:58;13.00;79.50
57857;DHT22;43683;48.650;9.290;2022-11-15T14:24:42;12.70;80.80
57857;DHT22;43683;48.650;9.290;2022-11-15T14:29:43;12.60;81.00
57857;DHT22;43683;48.650;9.290;2022-11-15T14:34:41;12.60;81.20
57857;DHT22;43683;48.650;9.290;2022-11-15T14:37:20;12.60;81.30
57857;DHT22;43683;48.650;9.290;2022-11-15T14:39:46;12.60;81.40
57857;DHT22;43683;48.650;9.290;2022-11-15T14:42:12;12.60;81.40
57857;DHT22;43683;48.650;9.290;2022-11-15T14:44:37;12.60;81.60
57857;DHT22;43683;48.650;9.290;2022-11-15T14:47:03;12.60;81.80
57857;DHT22;43683;48.650;9.290;2022-11-15T14:49:28;12.60;81.90
57857;DHT22;43683;48.650;9.290;2022-11-15T14:51:54;12.50;82.10
57857;DHT22;43683;48.650;9.290;2022-11-15T14:54:19;12.50;82.40
57857;DHT22;43683;48.650;9.290;2022-11-15T14:56:45;12.40;82.60
57857;DHT22;43683;48.650;9.290;2022-11-15T14:59:10;12.40;82.90
57857;DHT22;43683;48.650;9.290;2022-11-15T15:01:36;12.40;83.30
57857;DHT22;43683;48.650;9.290;2022-11-15T15:04:01;12.30;83.70
57857;DHT22;43683;48.650;9.290;2022-11-15T15:06:27;12.30;84.00
57857;DHT22;43683;48.650;9.290;2022-11-15T15:08:53;12.20;84.20
57857;DHT22;43683;48.650;9.290;2022-11-15T15:11:29;12.20;84.40
57857;DHT22;43683;48.650;9.290;2022-11-15T15:13:55;12.10;84.80
57857;DHT22;43683;48.650;9.290;2022-11-15T15:16:23;12.00;84.80
57857;DHT22;43683;48.650;9.290;2022-11-15T15:18:50;12.00;84.90
57857;DHT22;43683;48.650;9.290;2022-11-15T15:21:26;11.90;85.10
57857;DHT22;43683;48.650;9.290;2022-11-15T15:23:56;11.80;85.40
57857;DHT22;43683;48.650;9.290;2022-11-15T15:26:23;11.80;85.50
57857;DHT22;43683;48.650;9.290;2022-11-15T15:28:49;11.70;85.60
57857;DHT22;43683;48.650;9.290;2022-11-15T15:31:16;11.70;85.60
57857;DHT22;43683;48.650;9.290;2022-11-15T15:33:42;11.70;85.60
57857;DHT22;43683;48.650;9.290;2022-11-15T15:36:12;11.60;85.70
57857;DHT22;43683;48.650;9.290;2022-11-15T15:38:38;11.60;86.00
57857;DHT22;43683;48.650;9.290;2022-11-15T15:41:08;11.50;86.20
57857;DHT22;43683;48.650;9.290;2022-11-15T15:43:34;11.40;86.10
57857;DHT22;43683;48.650;9.290;2022-11-15T15:46:00;11.30;86.20
57857;DHT22;43683;48.650;9.290;2022-11-15T15:48:25;11.30;86.40
57857;DHT22;43683;48.650;9.290;2022-11-15T15:50:51;11.30;86.50
57857;DHT22;43683;48.650;9.290;2022-11-15T15:53:16;11.30;86.60
57857;DHT22;43683;48.650;9.290;2022-11-15T15:55:42;11.20;86.80
57857;DHT22;43683;48.650;9.290;2022-11-15T15:58:08;11.10;86.90
57857;DHT22;43683;48.650;9.290;2022-11-15T16:00:33;11.10;87.00
57857;DHT22;43683;48.650;9.290;2022-11-15T16:02:59;11.00;87.20
57857;DHT22;43683;48.650;9.290;2022-11-15T16:05:24;10.90;87.40
57857;DHT22;43683;48.650;9.290;2022-11-15T16:07:50;10.90;87.50
57857;DHT22;43683;48.650;9.290;2022-11-15T16:10:27;10.90;87.50
57857;DHT22;43683;48.650;9.290;2022-11-15T16:12:54;10.90;87.80
57857;DHT22;43683;48.650;9.290;2022-11-15T16:15:21;10.80;87.90
57857;DHT22;43683;48.650;9.290;2022-11-15T16:17:50;10.80;88.00
57857;DHT22;43683;48.650;9.290;2022-11-15T16:20:38;10.70;88.40
57857;DHT22;43683;48.650;9.290;2022-11-15T16:23:07;10.70;88.50
57857;DHT22;43683;48.650;9.290;2022-11-15T16:28:25;10.70;88.70
57857;DHT22;43683;48.650;9.290;2022-11-15T16:31:11;10.60;88.90
57857;DHT22;43683;48.650;9.290;2022-11-15T16:33:38;10.60;89.00
57857;DHT22;43683;48.650;9.290;2022-11-15T16:36:05;10.60;88.90
57857;DHT22;43683;48.650;9.290;2022-11-15T16:38:31;10.60;89.10
57857;DHT22;43683;48.650;9.290;2022-11-15T16:40:57;10.60;89.10
57857;DHT22;43683;48.650;9.290;2022-11-15T16:43:23;10.60;89.30
57857;DHT22;43683;48.650;9.290;2022-11-15T16:45:49;10.50;89.30
57857;DHT22;43683;48.650;9.290;2022-11-15T16:48:22;10.50;89.50
57857;DHT22;43683;48.650;9.290;2022-11-15T16:50:48;10.50;89.70
57857;DHT22;43683;48.650;9.290;2022-11-15T16:53:13;10.50;89.60
57857;DHT22;43683;48.650;9.290;2022-11-15T16:55:39;10.50;89.60
57857;DHT22;43683;48.650;9.290;2022-11-15T16:58:04;10.60;89.60
57857;DHT22;43683;48.650;9.290;2022-11-15T17:00:30;10.70;89.40
57857;DHT22;43683;48.650;9.290;2022-11-15T17:02:57;10.70;89.30
57857;DHT22;43683;48.650;9.290;2022-11-15T17:05:23;10.80;89.10
57857;DHT22;43683;48.650;9.290;2022-11-15T17:07:51;10.90;89.00
57857;DHT22;43683;48.650;9.290;2022-11-15T17:10:19;10.90;88.70
57857;DHT22;43683;48.650;9.290;2022-11-15T17:12:45;11.00;88.60
57857;DHT22;43683;48.650;9.290;2022-11-15T17:15:11;11.10;88.30
57857;DHT22;43683;48.650;9.290;2022-11-15T17:17:37;11.10;88.10
57857;DHT22;43683;48.650;9.290;2022-11-15T17:20:04;11.20;87.90
57857;DHT22;43683;48.650;9.290;2022-11-15T17:22:37;11.30;87.90
57857;DHT22;43683;48.650;9.290;2022-11-15T17:25:03;11.30;87.70
57857;DHT22;43683;48.650;9.290;2022-11-15T17:27:29;11.40;87.80
57857;DHT22;43683;48.650;9.290;2022-11-15T17:29:55;11.40;88.50
57857;DHT22;43683;48.650;9.290;2022-11-15T17:32:20;11.40;87.90
57857;DHT22;43683;48.650;9.290;2022-11-15T17:34:46;11.30;88.00
57857;DHT22;43683;48.650;9.290;2022-11-15T17:37:11;11.30;88.10
57857;DHT22;43683;48.650;9.290;2022-11-15T17:39:37;11.30;88.20
57857;DHT22;43683;48.650;9.290;2022-11-15T17:42:03;11.30;88.30
57857;DHT22;43683;48.650;9.290;2022-11-15T17:44:28;11.30;88.40
57857;DHT22;43683;48.650;9.290;2022-11-15T17:46:54;11.30;88.50
57857;DHT22;43683;48.650;9.290;2022-11-15T17:49:19;11.20;88.50
57857;DHT22;43683;48.650;9.290;2022-11-15T17:51:45;11.20;88.70
57857;DHT22;43683;48.650;9.290;2022-11-15T17:54:10;11.10;88.90
57857;DHT22;43683;48.650;9.290;2022-11-15T17:56:38;11.10;89.10
57857;DHT22;43683;48.650;9.290;2022-11-15T17:59:04;11.00;89.20
57857;DHT22;43683;48.650;9.290;2022-11-15T18:01:32;11.00;89.40
57857;DHT22;43683;48.650;9.290;2022-11-15T18:03:58;10.90;89.50
57857;DHT22;43683;48.650;9.290;2022-11-15T18:06:27;10.80;89.60
57857;DHT22;43683;48.650;9.290;2022-11-15T18:08:54;10.80;89.80
57857;DHT22;43683;48.650;9.290;2022-11-15T18:11:28;10.80;89.90
57857;DHT22;43683;48.650;9.290;2022-11-15T18:13:56;10.80;89.80